createdAt,value
2019-04-16T00:02:22.841Z,29.90
2019-04-16T00:04:56.995Z,29.90
2019-04-16T00:07:33.031Z,29.90
2019-04-16T00:10:09.112Z,29.90
2019-04-16T00:12:59.511Z,29.80
2019-04-16T00:15:31.074Z,29.90
2019-04-16T00:18:24.539Z,29.90
2019-04-16T00:21:01.042Z,29.90
2019-04-16T00:23:52.459Z,29.90
2019-04-16T00:26:26.501Z,29.90
2019-04-16T00:28:55.346Z,29.90
2019-04-16T00:31:26.166Z,29.90
2019-04-16T00:33:57.179Z,29.90
2019-04-16T00:36:28.015Z,29.90
2019-04-16T00:39:00.099Z,30.00
2019-04-16T00:41:30.863Z,30.00
2019-04-16T00:44:02.535Z,29.90
2019-04-16T00:46:34.041Z,30.00
2019-04-16T00:49:05.000Z,30.00
2019-04-16T00:51:36.507Z,30.00
2019-04-16T00:54:10.629Z,30.10
2019-04-16T00:57:00.863Z,30.10
2019-04-16T00:59:31.970Z,30.20
2019-04-16T01:02:02.960Z,30.20
2019-04-16T01:04:33.618Z,30.20
2019-04-16T01:07:04.747Z,30.20
2019-04-16T01:09:38.779Z,30.30
2019-04-16T01:12:10.020Z,30.30
2019-04-16T01:14:40.897Z,30.30
2019-04-16T01:17:11.742Z,30.40
2019-04-16T01:19:46.925Z,30.50
2019-04-16T01:22:19.092Z,30.50
2019-04-16T01:24:52.619Z,30.50
2019-04-16T01:27:28.519Z,30.50
2019-04-16T01:30:05.158Z,30.60
2019-04-16T01:32:58.834Z,30.60
2019-04-16T01:35:41.589Z,30.60
2019-04-16T01:38:28.660Z,30.70
2019-04-16T01:41:07.478Z,30.70
2019-04-16T01:43:43.231Z,30.80
2019-04-16T01:46:15.509Z,30.80
2019-04-16T01:48:47.743Z,30.70
2019-04-16T01:51:19.104Z,30.80
2019-04-16T01:54:03.224Z,30.70
2019-04-16T01:56:36.447Z,30.70
2019-04-16T01:59:09.268Z,30.70
2019-04-16T02:01:49.796Z,30.80
2019-04-16T02:04:23.086Z,30.70
2019-04-16T02:06:54.374Z,30.80
2019-04-16T02:09:34.135Z,30.70
2019-04-16T02:12:01.105Z,30.80
2019-04-16T02:14:32.465Z,30.90
2019-04-16T02:17:03.339Z,30.90
2019-04-16T02:19:36.287Z,30.90
2019-04-16T02:22:07.242Z,31.00
2019-04-16T02:24:39.595Z,31.00
2019-04-16T02:27:11.253Z,31.10
2019-04-16T02:29:45.619Z,31.10
2019-04-16T02:32:17.109Z,31.10
2019-04-16T02:34:49.879Z,31.10
2019-04-16T02:37:25.753Z,31.20
2019-04-16T02:39:58.767Z,31.20
2019-04-16T02:42:32.084Z,31.30
2019-04-16T02:45:04.847Z,31.40
2019-04-16T02:47:39.880Z,31.40
2019-04-16T02:50:10.921Z,31.40
2019-04-16T02:52:52.561Z,31.50
2019-04-16T02:55:34.217Z,31.60
2019-04-16T02:58:22.652Z,31.60
2019-04-16T03:00:58.037Z,31.70
2019-04-16T03:03:42.588Z,31.70
2019-04-16T03:06:15.030Z,31.80
2019-04-16T03:08:52.889Z,31.70
2019-04-16T03:11:24.443Z,31.80
2019-04-16T03:13:58.223Z,31.90
2019-04-16T03:17:02.344Z,31.90
2019-04-16T03:19:34.814Z,31.90
2019-04-16T03:22:07.966Z,31.80
2019-04-16T03:24:40.218Z,31.80
2019-04-16T03:27:15.242Z,31.90
2019-04-16T03:32:51.580Z,31.90
2019-04-16T03:35:26.398Z,32.00
2019-04-16T03:38:04.373Z,32.00
2019-04-16T03:40:34.439Z,32.00
2019-04-16T03:43:05.850Z,32.00
2019-04-16T03:45:37.577Z,32.00
2019-04-16T03:48:09.774Z,32.10
2019-04-16T03:50:42.042Z,32.10
2019-04-16T03:53:16.456Z,32.10
2019-04-16T03:55:46.429Z,32.20
2019-04-16T03:58:20.961Z,32.20
2019-04-16T04:00:52.545Z,32.10
2019-04-16T04:03:26.074Z,32.20
2019-04-16T04:05:57.087Z,32.20
2019-04-16T04:08:28.439Z,32.30
2019-04-16T04:11:02.493Z,32.40
2019-04-16T04:13:34.446Z,32.40
2019-04-16T04:16:33.420Z,32.40
2019-04-16T04:19:16.012Z,32.50
2019-04-16T04:21:57.078Z,32.70
2019-04-16T04:24:32.453Z,32.80
2019-04-16T04:27:04.822Z,32.80
2019-04-16T04:29:39.726Z,32.80
2019-04-16T04:32:12.460Z,32.90
2019-04-16T04:34:45.406Z,32.90
2019-04-16T04:37:23.456Z,33.00
2019-04-16T04:39:55.922Z,33.00
2019-04-16T04:42:33.231Z,33.00
2019-04-16T04:45:08.353Z,33.20
2019-04-16T04:47:44.575Z,33.20
2019-04-16T04:50:13.423Z,33.30
2019-04-16T04:52:50.210Z,33.30
2019-04-16T04:55:31.155Z,33.30
2019-04-16T04:58:03.556Z,33.40
2019-04-16T05:00:40.254Z,33.40
2019-04-16T05:03:15.624Z,33.40
2019-04-16T05:06:08.088Z,33.40
2019-04-16T05:11:37.512Z,33.50
2019-04-16T05:14:11.599Z,33.40
2019-04-16T05:16:44.127Z,33.40
2019-04-16T05:19:21.962Z,33.50
2019-04-16T05:21:55.230Z,33.50
2019-04-16T05:24:37.550Z,33.60
2019-04-16T05:27:11.046Z,33.60
2019-04-16T05:29:42.923Z,33.60
2019-04-16T05:32:15.571Z,33.70
2019-04-16T05:34:50.231Z,33.70
2019-04-16T05:37:23.616Z,33.70
2019-04-16T05:40:00.154Z,33.70
2019-04-16T05:42:35.223Z,33.70
2019-04-16T05:45:26.800Z,33.60
2019-04-16T05:48:02.936Z,33.70
2019-04-16T05:50:38.564Z,33.70
2019-04-16T05:53:13.662Z,33.80
2019-04-16T05:56:13.175Z,33.80
2019-04-16T05:59:04.462Z,33.80
2019-04-16T06:01:42.406Z,33.80
2019-04-16T06:04:14.435Z,33.90
2019-04-16T06:06:53.516Z,34.00
2019-04-16T06:09:45.308Z,33.90
2019-04-16T06:12:20.542Z,34.00
2019-04-16T06:15:10.803Z,34.00
2019-04-16T06:17:46.219Z,34.00
2019-04-16T06:20:27.655Z,34.00
2019-04-16T06:23:06.504Z,34.20
2019-04-16T06:25:42.783Z,34.30
2019-04-16T06:28:16.995Z,34.30
2019-04-16T06:33:51.668Z,34.30
2019-04-16T06:36:42.256Z,34.40
2019-04-16T06:39:19.112Z,34.50
2019-04-16T06:41:55.227Z,34.50
2019-04-16T06:44:30.836Z,34.50
2019-04-16T06:47:14.209Z,34.60
2019-04-16T06:49:53.747Z,34.60
2019-04-16T06:52:42.907Z,34.60
2019-04-16T06:55:42.786Z,34.60
2019-04-16T06:58:18.020Z,34.60
2019-04-16T07:01:22.946Z,34.70
2019-04-16T07:03:59.651Z,34.80
2019-04-16T07:06:36.290Z,34.70
2019-04-16T07:09:26.178Z,34.90
2019-04-16T07:12:07.447Z,34.90
2019-04-16T07:14:39.750Z,35.00
2019-04-16T07:17:18.725Z,35.00
2019-04-16T07:19:56.495Z,35.10
2019-04-16T07:22:27.676Z,35.20
2019-04-16T07:25:15.616Z,35.40
2019-04-16T07:27:52.649Z,35.30
2019-04-16T07:30:30.098Z,35.30
2019-04-16T07:33:15.127Z,35.30
2019-04-16T07:35:51.072Z,35.30
2019-04-16T07:38:43.286Z,35.30
2019-04-16T07:41:21.821Z,35.30
2019-04-16T07:44:09.672Z,35.30
2019-04-16T07:46:38.753Z,35.40
2019-04-16T07:49:15.376Z,35.30
2019-04-16T07:52:07.008Z,35.40
2019-04-16T07:54:51.197Z,35.30
2019-04-16T07:57:23.591Z,35.30
2019-04-16T07:59:54.443Z,35.30
2019-04-16T08:02:25.002Z,35.30
2019-04-16T08:04:57.087Z,35.20
2019-04-16T08:07:28.078Z,35.30
2019-04-16T08:10:02.060Z,35.10
2019-04-16T08:12:33.368Z,35.10
2019-04-16T08:15:13.938Z,35.00
2019-04-16T08:17:41.286Z,35.00
2019-04-16T08:20:13.886Z,34.90
2019-04-16T08:22:47.310Z,34.70
2019-04-16T08:25:18.240Z,34.70
2019-04-16T08:27:50.770Z,34.70
2019-04-16T08:30:21.089Z,34.60
2019-04-16T08:32:51.934Z,34.50
2019-04-16T08:35:22.608Z,34.50
2019-04-16T08:37:53.315Z,34.60
2019-04-16T08:40:24.093Z,34.50
2019-04-16T08:42:57.281Z,34.50
2019-04-16T08:45:27.150Z,34.60
2019-04-16T08:47:57.703Z,34.70
2019-04-16T08:50:28.091Z,34.60
2019-04-16T08:52:58.557Z,34.70
2019-04-16T08:55:29.225Z,34.70
2019-04-16T08:57:59.619Z,34.60
2019-04-16T09:00:38.455Z,34.60
2019-04-16T09:03:09.107Z,34.60
2019-04-16T09:05:41.534Z,34.50
2019-04-16T09:08:21.600Z,34.50
2019-04-16T09:10:49.175Z,34.60
2019-04-16T09:13:24.547Z,34.50
2019-04-16T09:15:55.483Z,34.50
2019-04-16T09:18:33.192Z,34.50
2019-04-16T09:21:07.160Z,34.50
2019-04-16T09:23:36.518Z,34.30
2019-04-16T09:26:14.163Z,34.40
2019-04-16T09:29:01.030Z,34.40
2019-04-16T09:31:37.803Z,34.40
2019-04-16T09:34:09.905Z,34.30
2019-04-16T09:47:15.642Z,34.20
2019-04-16T09:55:53.555Z,34.10
2019-04-16T09:58:30.524Z,34.00
2019-04-16T10:04:24.125Z,34.10
2019-04-16T10:09:51.402Z,34.10
2019-04-16T10:12:26.872Z,34.00
2019-04-16T10:14:57.751Z,34.00
2019-04-16T10:17:29.695Z,33.80
2019-04-16T10:20:00.611Z,33.70
2019-04-16T10:22:31.881Z,33.80
2019-04-16T10:25:12.993Z,33.70
2019-04-16T10:27:51.098Z,33.70
2019-04-16T10:30:26.106Z,33.60
2019-04-16T10:32:56.926Z,33.50
2019-04-16T10:35:27.610Z,33.60
2019-04-16T10:38:00.108Z,33.60
2019-04-16T10:40:35.702Z,33.60
2019-04-16T10:43:22.091Z,33.40
2019-04-16T10:45:54.245Z,33.40
2019-04-16T10:48:42.933Z,33.40
2019-04-16T10:51:15.678Z,33.40
2019-04-16T10:53:51.537Z,33.30
2019-04-16T10:56:29.398Z,33.30
2019-04-16T10:59:08.103Z,33.20
2019-04-16T11:01:46.829Z,33.20
2019-04-16T11:04:35.428Z,33.20
2019-04-16T11:07:17.072Z,33.10
2019-04-16T11:09:48.084Z,33.00
2019-04-16T11:12:19.874Z,33.00
2019-04-16T11:14:50.685Z,32.90
2019-04-16T11:17:23.057Z,32.80
2019-04-16T11:19:55.076Z,32.70
2019-04-16T11:22:26.056Z,32.70
2019-04-16T11:24:57.232Z,32.60
2019-04-16T11:27:27.945Z,32.50
2019-04-16T11:30:03.999Z,32.60
2019-04-16T11:35:25.309Z,32.40
2019-04-16T11:37:56.389Z,32.30
2019-04-16T11:40:27.333Z,32.30
2019-04-16T11:42:58.488Z,32.30
2019-04-16T11:45:29.243Z,32.20
2019-04-16T11:48:01.258Z,32.20
2019-04-16T11:50:35.810Z,32.10
2019-04-16T11:53:08.320Z,32.00
2019-04-16T11:55:41.013Z,32.10
2019-04-16T11:58:22.794Z,32.00
2019-04-16T12:01:04.872Z,32.00
2019-04-16T12:03:56.292Z,31.90
2019-04-16T12:06:32.448Z,31.90
2019-04-16T12:09:04.586Z,31.90
2019-04-16T12:11:43.208Z,31.90
2019-04-16T12:14:34.665Z,31.80
2019-04-16T12:17:17.543Z,31.80
2019-04-16T12:19:49.829Z,31.80
2019-04-16T12:22:35.819Z,31.80
2019-04-16T12:25:26.613Z,31.70
2019-04-16T12:28:15.177Z,31.80
2019-04-16T12:30:59.555Z,31.70
2019-04-16T12:33:32.031Z,31.70
2019-04-16T12:36:20.779Z,31.70
2019-04-16T12:39:09.823Z,31.50
2019-04-16T12:41:48.371Z,31.60
2019-04-16T12:44:44.384Z,31.60
2019-04-16T12:47:05.710Z,31.60
2019-04-16T12:49:54.943Z,31.60
2019-04-16T12:52:43.452Z,31.50
2019-04-16T12:55:23.816Z,31.50
2019-04-16T12:57:58.849Z,31.40
2019-04-16T13:00:36.179Z,31.40
2019-04-16T13:03:08.235Z,31.40
2019-04-16T13:06:01.502Z,31.40
2019-04-16T13:08:37.066Z,31.40
2019-04-16T13:11:21.681Z,31.30
2019-04-16T13:14:10.831Z,31.40
2019-04-16T13:17:01.681Z,31.30
2019-04-16T13:19:33.330Z,31.40
2019-04-16T13:22:05.789Z,31.30
2019-04-16T13:24:40.933Z,31.30
2019-04-16T13:27:13.542Z,31.20
2019-04-16T13:29:47.432Z,31.30
2019-04-16T13:32:18.083Z,31.30
2019-04-16T13:34:49.194Z,31.30
2019-04-16T13:37:36.476Z,31.20
2019-04-16T13:39:53.813Z,31.30
2019-04-16T13:42:27.568Z,31.20
2019-04-16T13:45:22.036Z,31.20
2019-04-16T13:47:55.987Z,31.20
2019-04-16T13:50:35.359Z,31.20
2019-04-16T13:53:06.617Z,31.20
2019-04-16T13:55:41.684Z,31.20
2019-04-16T13:58:29.063Z,31.20
2019-04-16T14:01:10.300Z,31.20
2019-04-16T14:03:39.757Z,31.20
2019-04-16T14:06:11.210Z,31.10
2019-04-16T14:08:43.769Z,31.10
2019-04-16T14:11:16.473Z,31.10
2019-04-16T14:13:50.090Z,31.10
2019-04-16T14:16:19.583Z,31.00
2019-04-16T14:19:09.459Z,31.00
2019-04-16T14:21:40.329Z,31.00
2019-04-16T14:24:12.537Z,31.00
2019-04-16T14:26:43.824Z,31.00
2019-04-16T14:29:14.759Z,31.00
2019-04-16T14:31:48.459Z,31.00
2019-04-16T14:34:22.898Z,31.00
2019-04-16T14:36:57.054Z,31.00
2019-04-16T14:39:29.063Z,31.00
2019-04-16T14:42:00.558Z,31.00
2019-04-16T14:44:34.585Z,31.00
2019-04-16T14:47:05.483Z,30.90
2019-04-16T14:49:36.217Z,30.80
2019-04-16T14:52:07.344Z,30.80
2019-04-16T14:54:45.793Z,30.90
2019-04-16T14:57:17.712Z,30.90
2019-04-16T14:59:50.727Z,30.80
2019-04-16T15:02:38.329Z,30.90
2019-04-16T15:05:15.568Z,30.80
2019-04-16T15:08:00.645Z,30.80
2019-04-16T15:10:45.624Z,30.80
2019-04-16T15:13:36.971Z,30.70
2019-04-16T15:19:18.025Z,30.80
2019-04-16T15:22:05.904Z,30.70
2019-04-16T15:24:47.582Z,30.70
2019-04-16T15:27:19.707Z,30.70
2019-04-16T15:29:52.631Z,30.70
2019-04-16T15:32:25.776Z,30.70
2019-04-16T15:34:58.051Z,30.70
2019-04-16T15:37:30.240Z,30.70
2019-04-16T15:40:07.239Z,30.70
2019-04-16T15:42:54.891Z,30.70
2019-04-16T15:45:31.226Z,30.70
2019-04-16T15:48:14.863Z,30.70
2019-04-16T15:50:54.867Z,30.60
2019-04-16T15:53:32.627Z,30.60
2019-04-16T15:56:07.956Z,30.60
2019-04-16T15:58:43.403Z,30.70
2019-04-16T16:01:21.510Z,30.60
2019-04-16T16:04:06.055Z,30.60
2019-04-16T16:06:38.536Z,30.50
2019-04-16T16:09:10.992Z,30.60
2019-04-16T16:11:44.553Z,30.60
2019-04-16T16:14:15.641Z,30.60
2019-04-16T16:16:47.833Z,30.60
2019-04-16T16:19:18.810Z,30.50
2019-04-16T16:21:49.601Z,30.60
2019-04-16T16:24:20.582Z,30.60
2019-04-16T16:26:51.357Z,30.50
2019-04-16T16:29:21.923Z,30.50
2019-04-16T16:31:56.183Z,30.50
2019-04-16T16:34:27.706Z,30.60
2019-04-16T16:36:58.717Z,30.60
2019-04-16T16:39:29.166Z,30.50
2019-04-16T16:41:59.866Z,30.50
2019-04-16T16:44:30.609Z,30.50
2019-04-16T16:47:17.793Z,30.50
2019-04-16T16:49:48.826Z,30.40
2019-04-16T16:52:37.124Z,30.40
2019-04-16T16:55:10.104Z,30.40
2019-04-16T16:57:45.405Z,30.40
2019-04-16T17:00:34.800Z,30.40
2019-04-16T17:03:09.746Z,30.40
2019-04-16T17:05:40.519Z,30.40
2019-04-16T17:08:11.235Z,30.40
2019-04-16T17:10:42.502Z,30.40
2019-04-16T17:13:15.722Z,30.40
2019-04-16T17:15:45.725Z,30.40
2019-04-16T17:18:16.706Z,30.40
2019-04-16T17:20:50.069Z,30.40
2019-04-16T17:23:19.666Z,30.40
2019-04-16T17:25:50.339Z,30.40
2019-04-16T17:28:20.927Z,30.40
2019-04-16T17:30:51.747Z,30.40
2019-04-16T17:33:22.418Z,30.40
2019-04-16T17:35:53.546Z,30.30
2019-04-16T17:38:24.515Z,30.30
2019-04-16T17:40:59.583Z,30.40
2019-04-16T17:43:30.168Z,30.40
2019-04-16T17:46:05.342Z,30.30
2019-04-16T17:48:43.910Z,30.40
2019-04-16T17:51:25.178Z,30.30
2019-04-16T17:54:12.662Z,30.40
2019-04-16T17:56:47.906Z,30.40
2019-04-16T17:59:23.450Z,30.30
2019-04-16T18:02:07.995Z,30.30
2019-04-16T18:04:46.341Z,30.30
2019-04-16T18:07:21.327Z,30.30
2019-04-16T18:10:00.411Z,30.20
2019-04-16T18:12:42.453Z,30.30
2019-04-16T18:15:14.833Z,30.30
2019-04-16T18:18:01.601Z,30.20
2019-04-16T18:20:32.077Z,30.20
2019-04-16T18:23:07.331Z,30.20
2019-04-16T18:25:55.655Z,30.10
2019-04-16T18:28:25.351Z,30.20
2019-04-16T18:31:03.958Z,30.10
2019-04-16T18:33:42.132Z,30.20
2019-04-16T18:36:33.533Z,30.20
2019-04-16T18:39:21.953Z,30.20
2019-04-16T18:41:56.769Z,30.10
2019-04-16T18:44:46.990Z,30.20
2019-04-16T18:47:21.812Z,30.20
2019-04-16T18:49:54.764Z,30.10
2019-04-16T18:52:25.728Z,30.10
2019-04-16T18:54:56.456Z,30.10
2019-04-16T18:57:27.294Z,30.20
2019-04-16T18:59:58.180Z,30.20
2019-04-16T19:02:30.312Z,30.20
2019-04-16T19:05:01.549Z,30.20
2019-04-16T19:07:32.311Z,30.10
2019-04-16T19:10:03.040Z,30.10
2019-04-16T19:12:33.924Z,30.20
2019-04-16T19:15:04.682Z,30.20
2019-04-16T19:17:35.420Z,30.10
2019-04-16T19:20:06.891Z,30.10
2019-04-16T19:22:37.591Z,30.10
2019-04-16T19:25:08.980Z,30.10
2019-04-16T19:27:42.015Z,30.10
2019-04-16T19:30:12.846Z,30.20
2019-04-16T19:32:43.506Z,30.10
2019-04-16T19:35:17.172Z,30.20
2019-04-16T19:37:46.985Z,30.20
2019-04-16T19:40:19.547Z,30.20
2019-04-16T19:42:50.402Z,30.10
2019-04-16T19:45:21.056Z,30.10
2019-04-16T19:47:51.815Z,30.00
2019-04-16T19:50:22.366Z,30.00
2019-04-16T19:52:53.119Z,29.90
2019-04-16T19:55:24.020Z,29.90
2019-04-16T19:57:57.487Z,30.00
2019-04-16T20:00:26.854Z,30.00
2019-04-16T20:02:57.739Z,30.00
2019-04-16T20:05:28.881Z,30.00
2019-04-16T20:08:01.371Z,30.00
2019-04-16T20:10:32.271Z,30.00
2019-04-16T20:13:03.157Z,30.00
2019-04-16T20:15:33.943Z,30.00
2019-04-16T20:18:06.526Z,30.00
2019-04-16T20:20:36.738Z,30.00
2019-04-16T20:23:07.554Z,30.00
2019-04-16T20:25:38.207Z,29.90
2019-04-16T20:28:09.636Z,30.00
2019-04-16T20:30:41.319Z,30.00
2019-04-16T20:33:12.011Z,30.00
2019-04-16T20:35:42.934Z,30.00
2019-04-16T20:38:16.979Z,29.90
2019-04-16T20:40:46.396Z,30.00
2019-04-16T20:43:17.118Z,29.90
2019-04-16T20:45:48.435Z,30.00
2019-04-16T20:48:19.154Z,30.00
2019-04-16T20:50:52.805Z,30.00
2019-04-16T20:53:22.610Z,29.90
2019-04-16T20:55:55.774Z,29.90
2019-04-16T20:58:31.252Z,29.90
2019-04-16T21:01:01.625Z,29.90
2019-04-16T21:03:32.413Z,29.80
2019-04-16T21:06:07.466Z,29.80
2019-04-16T21:08:35.484Z,29.90
2019-04-16T21:11:08.817Z,29.90
2019-04-16T21:13:39.737Z,29.90
2019-04-16T21:16:10.425Z,30.00
2019-04-16T21:18:41.131Z,29.90
2019-04-16T21:21:11.914Z,30.00
2019-04-16T21:23:42.615Z,29.90
2019-04-16T21:26:13.310Z,29.90
2019-04-16T21:28:45.699Z,29.90
2019-04-16T21:31:17.741Z,29.90
2019-04-16T21:33:52.229Z,29.80
2019-04-16T21:36:28.999Z,29.80
2019-04-16T21:39:10.929Z,29.70
2019-04-16T21:41:41.582Z,29.80
2019-04-16T21:44:13.213Z,29.80
2019-04-16T21:46:44.305Z,29.80
2019-04-16T21:49:14.959Z,29.90
2019-04-16T21:52:03.631Z,29.80
2019-04-16T21:54:34.347Z,29.80
2019-04-16T21:57:05.019Z,29.80
2019-04-16T21:59:35.914Z,29.80
2019-04-16T22:02:14.149Z,29.70
2019-04-16T22:04:45.444Z,29.70
2019-04-16T22:07:16.859Z,29.70
2019-04-16T22:09:47.590Z,29.80
2019-04-16T22:12:18.775Z,29.80
2019-04-16T22:14:51.026Z,29.70
2019-04-16T22:17:22.014Z,29.70
2019-04-16T22:19:58.023Z,29.80
2019-04-16T22:22:27.582Z,29.70
2019-04-16T22:24:57.113Z,29.70
2019-04-16T22:27:27.889Z,29.70
2019-04-16T22:29:59.003Z,29.80
2019-04-16T22:32:30.941Z,29.80
2019-04-16T22:35:02.317Z,29.70
2019-04-16T22:37:33.189Z,29.70
2019-04-16T22:40:22.852Z,29.70
2019-04-16T22:43:06.964Z,29.60
2019-04-16T22:45:47.497Z,29.80
2019-04-16T22:48:18.338Z,29.70
2019-04-16T22:50:49.001Z,29.70
2019-04-16T22:53:19.741Z,29.60
2019-04-16T22:56:03.830Z,29.60
2019-04-16T22:58:53.886Z,29.60
2019-04-16T23:01:26.931Z,29.60
2019-04-16T23:04:00.553Z,29.70
2019-04-16T23:06:37.994Z,29.60
2019-04-16T23:09:08.923Z,29.60
2019-04-16T23:11:39.901Z,29.60
2019-04-16T23:14:11.027Z,29.60
2019-04-16T23:16:42.774Z,29.60
2019-04-16T23:19:13.933Z,29.60
2019-04-16T23:21:44.651Z,29.60
2019-04-16T23:24:23.390Z,29.50
2019-04-16T23:26:54.723Z,29.50
2019-04-16T23:29:25.899Z,29.60
2019-04-16T23:31:57.797Z,29.60
2019-04-16T23:34:28.517Z,29.70
2019-04-16T23:37:00.212Z,29.60
2019-04-16T23:39:33.574Z,29.60
2019-04-16T23:42:03.251Z,29.60
2019-04-16T23:44:46.629Z,29.60
2019-04-16T23:47:28.284Z,29.60
2019-04-16T23:50:03.420Z,29.60
2019-04-16T23:52:35.827Z,29.60
2019-04-16T23:55:20.424Z,29.60
2019-04-16T23:57:56.843Z,29.60
